Main page
Satellite images 10-day forecastsClimateMarine weather Cyclones Lightning AirportsFAQ Newsletter About
Weather : Europe Africa North America South America Asia Australia-Oceania Others
Languages Contact

Christchurch, New Zealand

Christchurch International Airport

latitude: 43-29S, longitude: 172-33E, elevation: 38 m


METAR: NZCH 260100Z AUTO 02009KT 9999 NCD 22/10 Q1004 NOSIG
TAF: NZCH 252308Z 2600/2700 04015G25KT 9999 -RA FEW070 BECMG 2608/2610 04012KT BECMG 2616/2618 VRB02KT

Time: 13:13 (01:13 UTC)

Current weather observation

The report was made 13 minutes ago, at 01:00 UTC
Wind 9 kt from the North/Northeast
Temperature 22°C
Humidity 46%
Pressure 1004 hPa
Visibility 10 km or more

Change units

Forecast

The report was made 2 hours and 5 minutes ago, at 23:08 UTC
Forecast valid from 26 at 00 UTC to 27 at 00 UTC
Wind 15 kt from the Northeast with gusts up to 25 kt
Visibility 10 km or more
Few clouds at a height of 7000 ft
light rain
Becoming
from 26 at 08 UTC to 26 at 10 UTC
Wind 12 kt from the Northeast
Becoming
from 26 at 16 UTC to 26 at 18 UTC
Wind 2 kt from variable directions
The information on this site is subject to a disclaimer
Weather : Europe Africa North America South America Asia Australia-Oceania Others
Satellite images 10-day forecastsClimateMarine weather Cyclones Lightning AirportsFAQ Languages Contact Newsletter About